Eurodam — PHOS — position and weather

sailwx.info

Track history (hours):
 
Tides and Currents Weather Stations Pressure Air Temp Water Temp Dewpoint Dewpoint Depression Visibility Wind Speed Wind Dir Waves Ship Positions

Eurodam (Netherlands)

Last reported at 2014-Sep-19 23:11 UTC. Time now 2014-Sep-21 20:06 UTC.
Position N 44°29' W 062°52'.

Length 287 m; draft 8 m.

Type: Passenger vessel. MMSI: 245206000.

Date/timePositionNaut miles runAvg speedWind from/ knotsBaromVisibWave heightAir tempDewpointWater temp
2014-Sep-19 23:11N 44°29' W 062°52'840.2
2014-Sep-19 23:00N 44°24' W 063°00'4 8.9 340 / 281026.610.8 0.513.0-0.716.8
2014-Sep-19 22:33N 44°25' W 063°05'1616.0
2014-Sep-19 21:33N 44°26' W 063°28'1312.9
2014-Sep-19 20:33N 44°38' W 063°34'0 0.1
2014-Sep-19 19:22N 44°38' W 063°34'0 0.0
2014-Sep-19 18:30N 44°38' W 063°34'0 0.0
2014-Sep-19 17:32N 44°38' W 063°34'0 0.0
2014-Sep-19 16:32N 44°38' W 063°34'0 0.0
2014-Sep-19 15:23N 44°38' W 063°34'0 0.0
2014-Sep-19 14:30N 44°38' W 063°34'0 0.0
2014-Sep-19 13:33N 44°38' W 063°34'0 0.0
2014-Sep-19 12:26N 44°38' W 063°34'2 1.7
2014-Sep-19 11:33N 44°37' W 063°33'1313.2
2014-Sep-19 10:33N 44°25' W 063°25'1322.9
2014-Sep-19 10:00N 44°12' W 063°24'1122.0 350 / 311018.310.8 1.014.0 7.717.0
2014-Sep-19 09:31N 44°12' W 063°39'3019.6
2014-Sep-19 08:00N 43°54' W 064°12'96 4.2 350 / 271017.210.8 14.0 7.717.0
2014-Sep-18 09:00N 44°36' W 066°12'12614.0 180 / 151012.010.8 12.010.412.3
2014-Sep-18 00:00N 43°30' W 068°42'4717.0 160 / 191014.810.8 17.013.312.8
2014-Sep-17 21:13N 43°26' W 069°47'1116.2
2014-Sep-17 20:33N 43°29' W 070°01'1313.4
2014-Sep-17 19:33N 43°39' W 070°13'1 0.3
2014-Sep-17 15:31N 43°39' W 070°15'0 0.0
2014-Sep-17 14:31N 43°39' W 070°15'0 0.0
2014-Sep-17 12:31N 43°39' W 070°15'0 0.0
2014-Sep-17 11:13N 43°39' W 070°15'0 0.7
2014-Sep-17 10:32N 43°40' W 070°14'10 9.8
2014-Sep-17 09:33N 43°32' W 070°06'9 8.9
2014-Sep-17 08:33N 43°24' W 070°00'9 8.6
2014-Sep-17 07:32N 43°16' W 069°57'40 7.6
2014-Sep-17 02:20N 42°42' W 070°24'8 9.1
2014-Sep-17 01:29N 42°36' W 070°31'7 7.5
2014-Sep-17 00:33N 42°31' W 070°38'712.7
2014-Sep-17 00:00N 42°24' W 070°36'614.3 160 / 81015.110.8 17.013.114.9
2014-Sep-16 23:33N 42°28' W 070°42'5 5.1
2014-Sep-16 22:33N 42°25' W 070°47'8 8.4
2014-Sep-16 21:33N 42°20' W 070°57'2 0.2
2014-Sep-16 11:31N 42°20' W 071°00'1111.1
2014-Sep-16 10:33N 42°23' W 070°46'916.3
2014-Sep-16 10:00N 42°18' W 070°36'7 9.5 160 / 141016.910.8 16.0 9.914.7
2014-Sep-16 09:17N 42°21' W 070°28'810.7
2014-Sep-16 08:32N 42°20' W 070°17'1111.4
2014-Sep-16 07:32N 42°19' W 070°02'1110.5
2014-Sep-16 06:33N 42°11' W 069°54'2912.4
2014-Sep-16 04:11N 41°45' W 069°36'912.3
2014-Sep-16 03:28N 41°37' W 069°31'1112.3
2014-Sep-16 02:33N 41°27' W 069°24'1212.3
2014-Sep-16 01:33N 41°16' W 069°16'1212.0
2014-Sep-16 00:33N 41°05' W 069°10'1323.5
2014-Sep-16 00:00N 40°54' W 069°00'10 6.9 320 / 71021.227.0 16.011.416.4
2014-Sep-15 22:33N 40°44' W 069°01'1212.5
2014-Sep-15 21:33N 40°33' W 069°09'1110.9
2014-Sep-15 20:32N 40°26' W 069°21'1212.3
2014-Sep-15 19:33N 40°26' W 069°37'1211.9
2014-Sep-15 18:33N 40°26' W 069°53'1212.1
2014-Sep-15 17:33N 40°26' W 070°09'1311.8
2014-Sep-15 16:25N 40°25' W 070°26'1011.8
2014-Sep-15 15:33N 40°25' W 070°39'1212.2
2014-Sep-15 14:33N 40°24' W 070°55'1212.2
2014-Sep-15 13:33N 40°24' W 071°11'1212.4
2014-Sep-15 12:33N 40°24' W 071°28'611.2
2014-Sep-15 12:00N 40°24' W 071°36'614.1 320 / 41022.210.8 18.010.820.5
2014-Sep-15 11:33N 40°23' W 071°44'916.6
2014-Sep-15 11:00N 40°18' W 071°54'715.9 340 / 71022.010.8 18.011.120.5
2014-Sep-15 10:33N 40°23' W 072°00'659011669.1
2014-Sep-15 10:00N 40°18' E 072°06'660215168.0 340 / 71021.910.8 18.010.620.5
2014-Sep-15 09:33N 40°23' W 072°16'660711698.7
2014-Sep-15 09:00N 40°24' E 072°18'661915196.4 310 / 51021.910.8 18.010.620.5
2014-Sep-15 08:33N 40°22' W 072°32'1312.5
2014-Sep-15 07:33N 40°19' W 072°48'1312.9
2014-Sep-15 06:32N 40°23' W 073°04'1212.0
2014-Sep-15 05:33N 40°23' W 073°20'1212.0
2014-Sep-15 04:33N 40°25' W 073°35'1212.4
2014-Sep-15 03:33N 40°28' W 073°51'1515.1
2014-Sep-15 02:33N 40°40' W 074°03'0 0.0
2014-Sep-14 08:33N 40°40' W 074°03'1010.6
2014-Sep-14 07:33N 40°30' W 073°57'1211.7
2014-Sep-14 06:33N 40°28' W 073°42'1616.1
2014-Sep-14 05:33N 40°29' W 073°21'2115.8
2014-Sep-14 04:13N 40°31' W 072°54'2615.9
2014-Sep-14 02:33N 40°31' W 072°19'1616.0
2014-Sep-14 01:33N 40°31' W 071°58'6516.3
2014-Sep-13 21:33N 40°33' W 070°32'1616.5
2014-Sep-13 20:33N 40°33' W 070°11'1616.2
2014-Sep-13 19:33N 40°34' W 069°49'1615.9
2014-Sep-13 18:33N 40°34' W 069°28'1615.8
2014-Sep-13 17:33N 40°34' W 069°07'1715.7
2014-Sep-13 16:30N 40°40' W 068°47'1516.4
2014-Sep-13 15:33N 40°45' W 068°28'1716.8
2014-Sep-13 14:33N 40°51' W 068°07'1817.2
2014-Sep-13 13:31N 40°57' W 067°45'1817.3
2014-Sep-13 12:29N 41°04' W 067°23'3019.9
2014-Sep-13 11:00N 41°18' W 066°48'3216.2 040 / 201022.510.8 0.517.013.716.5
2014-Sep-13 09:00N 41°36' W 066°12'1514.7 030 / 201021.510.8 17.013.116.5
2014-Sep-13 08:00N 41°42' W 065°54'19116.7 030 / 201021.210.8 17.013.116.5
2014-Sep-12 20:33N 44°19' W 063°26'1514.6
2014-Sep-12 19:32N 44°34' W 063°32'5 3.7
2014-Sep-12 18:17N 44°38' W 063°34'0 0.0
2014-Sep-12 17:32N 44°38' W 063°34'0 0.0
2014-Sep-12 16:29N 44°38' W 063°34'0 0.0
2014-Sep-12 15:32N 44°38' W 063°34'0 0.0
2014-Sep-12 14:23N 44°38' W 063°34'0 0.0
2014-Sep-12 13:32N 44°38' W 063°34'0 0.3
2014-Sep-12 13:24N 44°38' W 063°34'0 0.0
2014-Sep-12 12:27N 44°38' W 063°34'0 0.0
2014-Sep-12 11:27N 44°38' W 063°34'1 1.3
2014-Sep-12 10:33N 44°37' W 063°33'1211.5
2014-Sep-12 09:33N 44°28' W 063°23'1515.4
2014-Sep-12 08:33N 44°28' W 063°02'1119.0
2014-Sep-12 08:00N 44°24' W 062°48'1818.2 230 / 201008.3 2.2 19.017.317.2
2014-Sep-12 07:00N 44°30' W 062°24'3115.3 230 / 201008.3 2.2 19.017.317.2
2014-Sep-12 05:00N 44°36' W 061°42'29515.5 190 / 201008.9 5.4 1.020.018.317.9
2014-Sep-11 10:00N 46°00' W 055°00'12713.4 090 / 171016.1 5.4 0.517.015.315.4
2014-Sep-11 00:31N 47°15' W 052°30'1615.5
2014-Sep-10 23:32N 47°30' W 052°31'9 8.5
2014-Sep-10 22:30N 47°34' W 052°42'0 0.0
2014-Sep-10 21:29N 47°34' W 052°42'0 0.0
2014-Sep-10 20:22N 47°34' W 052°42'0 0.0
2014-Sep-10 19:25N 47°34' W 052°42'0 0.0
2014-Sep-10 18:19N 47°34' W 052°42'0 0.0
2014-Sep-10 17:25N 47°34' W 052°42'0 0.0
2014-Sep-10 16:31N 47°34' W 052°42'0 0.0
2014-Sep-10 15:31N 47°34' W 052°42'0 0.0
2014-Sep-10 14:26N 47°34' W 052°42'3 3.6
2014-Sep-10 13:32N 47°34' W 052°38'1110.7
2014-Sep-10 12:31N 47°44' W 052°34'3413.3
2014-Sep-10 10:00N 48°18' W 052°30'4214.1 230 / 121027.110.8 0.514.011.012.7
2014-Sep-10 07:00N 49°00' W 052°36'   240 / 251025.610.8 14.010.012.7
Track history (hours):
 
Tides and Currents Weather Stations Pressure Air Temp Water Temp Dewpoint Dewpoint Depression Visibility Wind Speed Wind Dir Waves Ship Positions

Eurodam (Netherlands)

Last reported at 2014-Sep-19 23:11 UTC. Time now 2014-Sep-21 20:06 UTC.
Position N 44°29' W 062°52'.

Length 287 m; draft 8 m.

Type: Passenger vessel. MMSI: 245206000.

Date/timePositionNaut miles runAvg speedWind from/ knotsBaromVisibWave heightAir tempDewpointWater temp
2014-Sep-19 23:11N 44°29' W 062°52'840.2
2014-Sep-19 23:00N 44°24' W 063°00'4 8.9 340 / 281026.610.8 0.513.0-0.716.8
2014-Sep-19 22:33N 44°25' W 063°05'1616.0
2014-Sep-19 21:33N 44°26' W 063°28'1312.9
2014-Sep-19 20:33N 44°38' W 063°34'0 0.1
2014-Sep-19 19:22N 44°38' W 063°34'0 0.0
2014-Sep-19 18:30N 44°38' W 063°34'0 0.0
2014-Sep-19 17:32N 44°38' W 063°34'0 0.0
2014-Sep-19 16:32N 44°38' W 063°34'0 0.0
2014-Sep-19 15:23N 44°38' W 063°34'0 0.0
2014-Sep-19 14:30N 44°38' W 063°34'0 0.0
2014-Sep-19 13:33N 44°38' W 063°34'0 0.0
2014-Sep-19 12:26N 44°38' W 063°34'2 1.7
2014-Sep-19 11:33N 44°37' W 063°33'1313.2
2014-Sep-19 10:33N 44°25' W 063°25'1322.9
2014-Sep-19 10:00N 44°12' W 063°24'1122.0 350 / 311018.310.8 1.014.0 7.717.0
2014-Sep-19 09:31N 44°12' W 063°39'3019.6
2014-Sep-19 08:00N 43°54' W 064°12'96 4.2 350 / 271017.210.8 14.0 7.717.0
2014-Sep-18 09:00N 44°36' W 066°12'12614.0 180 / 151012.010.8 12.010.412.3
2014-Sep-18 00:00N 43°30' W 068°42'4717.0 160 / 191014.810.8 17.013.312.8
2014-Sep-17 21:13N 43°26' W 069°47'1116.2
2014-Sep-17 20:33N 43°29' W 070°01'1313.4
2014-Sep-17 19:33N 43°39' W 070°13'1 0.3
2014-Sep-17 15:31N 43°39' W 070°15'0 0.0
2014-Sep-17 14:31N 43°39' W 070°15'0 0.0
2014-Sep-17 12:31N 43°39' W 070°15'0 0.0
2014-Sep-17 11:13N 43°39' W 070°15'0 0.7
2014-Sep-17 10:32N 43°40' W 070°14'10 9.8
2014-Sep-17 09:33N 43°32' W 070°06'9 8.9
2014-Sep-17 08:33N 43°24' W 070°00'9 8.6
2014-Sep-17 07:32N 43°16' W 069°57'40 7.6
2014-Sep-17 02:20N 42°42' W 070°24'8 9.1
2014-Sep-17 01:29N 42°36' W 070°31'7 7.5
2014-Sep-17 00:33N 42°31' W 070°38'712.7
2014-Sep-17 00:00N 42°24' W 070°36'614.3 160 / 81015.110.8 17.013.114.9
2014-Sep-16 23:33N 42°28' W 070°42'5 5.1
2014-Sep-16 22:33N 42°25' W 070°47'8 8.4
2014-Sep-16 21:33N 42°20' W 070°57'2 0.2
2014-Sep-16 11:31N 42°20' W 071°00'1111.1
2014-Sep-16 10:33N 42°23' W 070°46'916.3
2014-Sep-16 10:00N 42°18' W 070°36'7 9.5 160 / 141016.910.8 16.0 9.914.7
2014-Sep-16 09:17N 42°21' W 070°28'810.7
2014-Sep-16 08:32N 42°20' W 070°17'1111.4
2014-Sep-16 07:32N 42°19' W 070°02'1110.5
2014-Sep-16 06:33N 42°11' W 069°54'2912.4
2014-Sep-16 04:11N 41°45' W 069°36'912.3
2014-Sep-16 03:28N 41°37' W 069°31'1112.3
2014-Sep-16 02:33N 41°27' W 069°24'1212.3
2014-Sep-16 01:33N 41°16' W 069°16'1212.0
2014-Sep-16 00:33N 41°05' W 069°10'1323.5
2014-Sep-16 00:00N 40°54' W 069°00'10 6.9 320 / 71021.227.0 16.011.416.4
2014-Sep-15 22:33N 40°44' W 069°01'1212.5
2014-Sep-15 21:33N 40°33' W 069°09'1110.9
2014-Sep-15 20:32N 40°26' W 069°21'1212.3
2014-Sep-15 19:33N 40°26' W 069°37'1211.9
2014-Sep-15 18:33N 40°26' W 069°53'1212.1
2014-Sep-15 17:33N 40°26' W 070°09'1311.8
2014-Sep-15 16:25N 40°25' W 070°26'1011.8
2014-Sep-15 15:33N 40°25' W 070°39'1212.2
2014-Sep-15 14:33N 40°24' W 070°55'1212.2
2014-Sep-15 13:33N 40°24' W 071°11'1212.4
2014-Sep-15 12:33N 40°24' W 071°28'611.2
2014-Sep-15 12:00N 40°24' W 071°36'614.1 320 / 41022.210.8 18.010.820.5
2014-Sep-15 11:33N 40°23' W 071°44'916.6
2014-Sep-15 11:00N 40°18' W 071°54'715.9 340 / 71022.010.8 18.011.120.5
2014-Sep-15 10:33N 40°23' W 072°00'659011669.1
2014-Sep-15 10:00N 40°18' E 072°06'660215168.0 340 / 71021.910.8 18.010.620.5
2014-Sep-15 09:33N 40°23' W 072°16'660711698.7
2014-Sep-15 09:00N 40°24' E 072°18'661915196.4 310 / 51021.910.8 18.010.620.5
2014-Sep-15 08:33N 40°22' W 072°32'1312.5
2014-Sep-15 07:33N 40°19' W 072°48'1312.9
2014-Sep-15 06:32N 40°23' W 073°04'1212.0
2014-Sep-15 05:33N 40°23' W 073°20'1212.0
2014-Sep-15 04:33N 40°25' W 073°35'1212.4
2014-Sep-15 03:33N 40°28' W 073°51'1515.1
2014-Sep-15 02:33N 40°40' W 074°03'0 0.0
2014-Sep-14 08:33N 40°40' W 074°03'1010.6
2014-Sep-14 07:33N 40°30' W 073°57'1211.7
2014-Sep-14 06:33N 40°28' W 073°42'1616.1
2014-Sep-14 05:33N 40°29' W 073°21'2115.8
2014-Sep-14 04:13N 40°31' W 072°54'2615.9
2014-Sep-14 02:33N 40°31' W 072°19'1616.0
2014-Sep-14 01:33N 40°31' W 071°58'6516.3
2014-Sep-13 21:33N 40°33' W 070°32'1616.5
2014-Sep-13 20:33N 40°33' W 070°11'1616.2
2014-Sep-13 19:33N 40°34' W 069°49'1615.9
2014-Sep-13 18:33N 40°34' W 069°28'1615.8
2014-Sep-13 17:33N 40°34' W 069°07'1715.7
2014-Sep-13 16:30N 40°40' W 068°47'1516.4
2014-Sep-13 15:33N 40°45' W 068°28'1716.8
2014-Sep-13 14:33N 40°51' W 068°07'1817.2
2014-Sep-13 13:31N 40°57' W 067°45'1817.3
2014-Sep-13 12:29N 41°04' W 067°23'3019.9
2014-Sep-13 11:00N 41°18' W 066°48'3216.2 040 / 201022.510.8 0.517.013.716.5
2014-Sep-13 09:00N 41°36' W 066°12'1514.7 030 / 201021.510.8 17.013.116.5
2014-Sep-13 08:00N 41°42' W 065°54'19116.7 030 / 201021.210.8 17.013.116.5
2014-Sep-12 20:33N 44°19' W 063°26'1514.6
2014-Sep-12 19:32N 44°34' W 063°32'5 3.7
2014-Sep-12 18:17N 44°38' W 063°34'0 0.0
2014-Sep-12 17:32N 44°38' W 063°34'0 0.0
2014-Sep-12 16:29N 44°38' W 063°34'0 0.0
2014-Sep-12 15:32N 44°38' W 063°34'0 0.0
2014-Sep-12 14:23N 44°38' W 063°34'0 0.0
2014-Sep-12 13:32N 44°38' W 063°34'0 0.3
2014-Sep-12 13:24N 44°38' W 063°34'0 0.0
2014-Sep-12 12:27N 44°38' W 063°34'0 0.0
2014-Sep-12 11:27N 44°38' W 063°34'1 1.3
2014-Sep-12 10:33N 44°37' W 063°33'1211.5
2014-Sep-12 09:33N 44°28' W 063°23'1515.4
2014-Sep-12 08:33N 44°28' W 063°02'1119.0
2014-Sep-12 08:00N 44°24' W 062°48'1818.2 230 / 201008.3 2.2 19.017.317.2
2014-Sep-12 07:00N 44°30' W 062°24'3115.3 230 / 201008.3 2.2 19.017.317.2
2014-Sep-12 05:00N 44°36' W 061°42'29515.5 190 / 201008.9 5.4 1.020.018.317.9
2014-Sep-11 10:00N 46°00' W 055°00'12713.4 090 / 171016.1 5.4 0.517.015.315.4
2014-Sep-11 00:31N 47°15' W 052°30'1615.5
2014-Sep-10 23:32N 47°30' W 052°31'9 8.5
2014-Sep-10 22:30N 47°34' W 052°42'0 0.0
2014-Sep-10 21:29N 47°34' W 052°42'0 0.0
2014-Sep-10 20:22N 47°34' W 052°42'0 0.0
2014-Sep-10 19:25N 47°34' W 052°42'0 0.0
2014-Sep-10 18:19N 47°34' W 052°42'0 0.0
2014-Sep-10 17:25N 47°34' W 052°42'0 0.0
2014-Sep-10 16:31N 47°34' W 052°42'0 0.0
2014-Sep-10 15:31N 47°34' W 052°42'0 0.0
2014-Sep-10 14:26N 47°34' W 052°42'3 3.6
2014-Sep-10 13:32N 47°34' W 052°38'1110.7
2014-Sep-10 12:31N 47°44' W 052°34'3413.3
2014-Sep-10 10:00N 48°18' W 052°30'4214.1 230 / 121027.110.8 0.514.011.012.7
2014-Sep-10 07:00N 49°00' W 052°36'   240 / 251025.610.8 14.010.012.7

Dump ship's entire track history